createdAt,value
2018-07-17T00:00:21.037Z,4.53
2018-07-17T00:05:05.754Z,6.70
2018-07-17T00:09:49.366Z,4.57
2018-07-17T00:14:36.309Z,5.20
2018-07-17T00:19:19.804Z,6.13
2018-07-17T00:24:04.330Z,5.17
2018-07-17T00:28:47.959Z,5.40
2018-07-17T00:33:35.043Z,4.50
2018-07-17T00:38:18.650Z,5.30
2018-07-17T00:43:03.293Z,4.80
2018-07-17T00:47:46.878Z,4.30
2018-07-17T00:52:31.390Z,6.20
2018-07-17T00:57:14.862Z,4.97
2018-07-17T01:02:03.696Z,4.80
2018-07-17T01:06:56.119Z,4.90
2018-07-17T01:11:44.966Z,4.67
2018-07-17T01:16:29.673Z,5.17
2018-07-17T01:21:13.249Z,4.70
2018-07-17T01:25:56.973Z,5.00
2018-07-17T01:30:40.621Z,4.63
2018-07-17T01:35:25.204Z,5.03
2018-07-17T01:40:08.670Z,8.30
2018-07-17T01:44:53.521Z,4.40
2018-07-17T01:49:37.703Z,4.50
2018-07-17T01:54:25.107Z,6.10
2018-07-17T01:59:08.647Z,6.73
2018-07-17T02:03:53.281Z,5.83
2018-07-17T02:08:36.796Z,4.57
2018-07-17T02:13:23.654Z,5.67
2018-07-17T02:18:07.182Z,7.00
2018-07-17T02:22:50.997Z,4.93
2018-07-17T02:27:34.519Z,8.27
2018-07-17T02:32:18.316Z,7.70
2018-07-17T02:37:01.970Z,5.70
2018-07-17T02:41:45.560Z,5.60
2018-07-17T02:46:32.197Z,5.20
2018-07-17T02:51:15.753Z,4.77
2018-07-17T02:56:02.701Z,4.90
2018-07-17T03:00:46.166Z,5.07
2018-07-17T03:05:29.738Z,4.73
2018-07-17T03:10:13.258Z,6.97
2018-07-17T03:15:02.651Z,7.27
2018-07-17T03:19:46.149Z,5.20
2018-07-17T03:24:30.721Z,9.13
2018-07-17T03:29:14.063Z,13.77
2018-07-17T03:34:01.540Z,10.60
2018-07-17T03:38:44.928Z,11.33
2018-07-17T03:43:29.724Z,9.77
2018-07-17T03:48:13.214Z,10.27
2018-07-17T03:52:59.809Z,8.53
2018-07-17T03:57:43.416Z,9.07
2018-07-17T04:02:27.101Z,10.60
2018-07-17T04:07:10.413Z,12.37
2018-07-17T04:11:54.986Z,11.27
2018-07-17T04:16:44.498Z,25.10
2018-07-17T04:21:28.058Z,18.47
2018-07-17T04:26:16.058Z,13.43
2018-07-17T04:30:59.594Z,13.10
2018-07-17T04:35:44.247Z,15.40
2018-07-17T04:40:27.827Z,15.37
2018-07-17T04:45:16.322Z,11.97
2018-07-17T04:49:59.726Z,7.40
2018-07-17T04:54:43.805Z,7.67
2018-07-17T04:59:27.328Z,6.83
2018-07-17T05:04:11.079Z,7.30
2018-07-17T05:08:54.570Z,6.37
2018-07-17T05:13:44.406Z,7.57
2018-07-17T05:18:28.010Z,8.20
2018-07-17T05:23:15.143Z,8.27
2018-07-17T05:27:58.420Z,5.70
2018-07-17T05:32:43.177Z,12.73
2018-07-17T05:37:26.603Z,7.60
2018-07-17T05:42:10.457Z,13.03
2018-07-17T05:46:53.943Z,11.07
2018-07-17T05:51:37.474Z,9.23
2018-07-17T05:56:21.269Z,15.37
2018-07-17T06:01:04.818Z,11.87
2018-07-17T06:05:52.022Z,7.17
2018-07-17T06:10:35.660Z,8.83
2018-07-17T06:15:22.565Z,7.37
2018-07-17T06:20:07.261Z,10.13
2018-07-17T06:24:54.205Z,7.90
2018-07-17T06:29:37.709Z,5.87
2018-07-17T06:34:25.032Z,6.00
2018-07-17T06:39:09.509Z,6.00
2018-07-17T06:43:53.970Z,6.73
2018-07-17T06:48:37.451Z,12.57
2018-07-17T06:53:23.949Z,4.27
2018-07-17T06:58:07.512Z,4.60
2018-07-17T07:02:54.054Z,4.90
2018-07-17T07:07:37.548Z,4.43
2018-07-17T07:12:22.021Z,5.93
2018-07-17T07:17:09.983Z,7.87
2018-07-17T07:22:00.869Z,4.90
2018-07-17T07:26:44.498Z,5.83
2018-07-17T07:31:31.217Z,6.53
2018-07-17T07:36:14.778Z,5.20
2018-07-17T07:40:59.088Z,4.27
2018-07-17T07:45:47.077Z,5.03
2018-07-17T07:50:31.338Z,8.10
2018-07-17T07:55:15.247Z,4.50
2018-07-17T07:59:59.809Z,4.30
2018-07-17T08:04:48.143Z,5.27
2018-07-17T08:09:31.785Z,6.03
2018-07-17T08:14:19.694Z,4.37
2018-07-17T08:19:05.281Z,5.67
2018-07-17T08:23:52.157Z,4.23
2018-07-17T08:28:35.532Z,5.37
2018-07-17T08:33:22.989Z,3.70
2018-07-17T08:38:06.626Z,3.47
2018-07-17T08:42:53.619Z,3.80
2018-07-17T08:47:37.173Z,3.53
2018-07-17T08:52:21.809Z,8.07
2018-07-17T08:57:05.441Z,3.70
2018-07-17T09:01:50.105Z,3.23
2018-07-17T09:06:33.662Z,3.30
2018-07-17T09:11:20.646Z,3.85
2018-07-17T09:16:04.272Z,3.60
2018-07-17T09:20:47.914Z,4.20
2018-07-17T09:25:31.589Z,3.23
2018-07-17T09:30:15.011Z,4.30
2018-07-17T09:34:59.522Z,7.28
2018-07-17T09:39:42.999Z,3.72
2018-07-17T09:44:27.612Z,3.52
2018-07-17T09:49:11.166Z,3.85
2018-07-17T09:53:54.863Z,3.40
2018-07-17T09:58:38.412Z,3.25
2018-07-17T10:03:22.978Z,3.85
2018-07-17T10:08:06.681Z,4.00
2018-07-17T10:12:53.756Z,3.42
2018-07-17T10:17:37.282Z,5.17
2018-07-17T10:22:22.837Z,3.85
2018-07-17T10:27:06.636Z,3.98
2018-07-17T10:31:51.185Z,4.73
2018-07-17T10:36:34.785Z,5.35
2018-07-17T10:41:19.716Z,3.75
2018-07-17T10:46:03.335Z,3.75
2018-07-17T10:50:46.885Z,4.12
2018-07-17T10:55:31.326Z,7.85
2018-07-17T11:00:17.766Z,3.87
2018-07-17T11:05:02.315Z,10.98
2018-07-17T11:09:46.489Z,6.03
2018-07-17T11:14:33.746Z,6.90
2018-07-17T11:19:17.373Z,3.52
2018-07-17T11:24:01.143Z,2.77
2018-07-17T11:28:44.705Z,5.72
2018-07-17T11:33:29.246Z,7.92
2018-07-17T11:38:14.603Z,4.92
2018-07-17T11:42:59.394Z,5.00
2018-07-17T11:47:43.032Z,4.20
2018-07-17T11:52:30.470Z,3.10
2018-07-17T11:57:14.153Z,2.85
2018-07-17T12:02:00.757Z,3.37
2018-07-17T12:06:44.286Z,3.12
2018-07-17T12:11:28.971Z,3.40
2018-07-17T12:16:12.628Z,2.75
2018-07-17T12:20:59.314Z,9.33
2018-07-17T12:25:42.823Z,6.00
2018-07-17T12:30:26.404Z,5.53
2018-07-17T12:35:09.953Z,2.40
2018-07-17T12:39:53.393Z,2.67
2018-07-17T12:44:37.977Z,10.30
2018-07-17T12:49:21.391Z,2.90
2018-07-17T12:54:05.149Z,2.50
2018-07-17T12:58:49.170Z,2.50
2018-07-17T13:03:34.445Z,8.38
2018-07-17T13:08:18.024Z,3.55
2018-07-17T13:13:04.738Z,4.90
2018-07-17T13:17:48.423Z,3.70
2018-07-17T13:22:34.800Z,5.10
2018-07-17T13:27:18.440Z,3.10
2018-07-17T13:32:03.017Z,5.37
2018-07-17T13:36:46.728Z,3.27
2018-07-17T13:41:36.428Z,3.33
2018-07-17T13:46:20.086Z,4.80
2018-07-17T13:51:04.856Z,3.95
2018-07-17T13:55:48.381Z,3.95
2018-07-17T14:00:35.233Z,6.87
2018-07-17T14:05:18.919Z,4.28
2018-07-17T14:10:02.489Z,5.72
2018-07-17T14:14:49.338Z,4.83
2018-07-17T14:19:32.997Z,4.60
2018-07-17T14:24:16.735Z,4.92
2018-07-17T14:29:00.207Z,3.87
2018-07-17T14:33:44.798Z,10.75
2018-07-17T14:38:28.238Z,5.37
2018-07-17T14:43:12.875Z,4.72
2018-07-17T14:47:56.393Z,5.35
2018-07-17T14:52:40.826Z,4.10
2018-07-17T14:57:24.361Z,8.10
2018-07-17T15:02:11.531Z,4.45
2018-07-17T15:06:55.162Z,5.35
2018-07-17T15:11:42.197Z,5.47
2018-07-17T15:16:25.705Z,3.92
2018-07-17T15:21:09.569Z,6.63
2018-07-17T15:25:53.058Z,6.75
2018-07-17T15:30:46.725Z,6.23
2018-07-17T15:35:30.353Z,5.10
2018-07-17T15:40:19.609Z,11.83
2018-07-17T15:49:54.107Z,8.70
2018-07-17T15:54:38.523Z,5.75
2018-07-17T15:59:22.000Z,12.70
2018-07-17T16:04:12.458Z,6.23
2018-07-17T16:08:56.860Z,10.97
2018-07-17T16:13:45.338Z,9.53
2018-07-17T16:18:30.037Z,10.90
2018-07-17T16:23:13.846Z,6.97
2018-07-17T16:28:01.454Z,5.20
2018-07-17T16:32:52.492Z,5.05
2018-07-17T16:37:39.907Z,5.45
2018-07-17T16:42:33.312Z,6.20
2018-07-17T16:47:21.043Z,7.70
2018-07-17T16:52:05.692Z,6.07
2018-07-17T16:56:49.165Z,7.93
2018-07-17T17:01:37.128Z,6.37
2018-07-17T17:06:20.778Z,7.60
2018-07-17T17:11:07.459Z,7.37
2018-07-17T17:15:51.064Z,7.60
2018-07-17T17:20:34.610Z,5.97
2018-07-17T17:25:18.151Z,6.47
2018-07-17T17:30:01.887Z,7.80
2018-07-17T17:34:45.345Z,7.57
2018-07-17T17:39:29.076Z,7.37
2018-07-17T17:44:13.359Z,7.40
2018-07-17T17:48:56.958Z,8.37
2018-07-17T17:53:46.917Z,7.63
2018-07-17T17:58:30.411Z,8.23
2018-07-17T18:03:17.746Z,6.60
2018-07-17T18:08:01.254Z,8.50
2018-07-17T18:12:45.812Z,11.67
2018-07-17T18:17:33.508Z,9.50
2018-07-17T18:22:17.870Z,10.20
2018-07-17T18:27:01.435Z,9.40
2018-07-17T18:31:48.464Z,10.53
2018-07-17T18:36:36.429Z,7.23
2018-07-17T18:41:41.885Z,9.43
2018-07-17T18:46:40.958Z,7.13
2018-07-17T18:51:27.819Z,6.97
2018-07-17T18:56:12.569Z,7.93
2018-07-17T19:01:00.058Z,7.73
2018-07-17T19:05:43.445Z,8.17
2018-07-17T19:10:27.076Z,7.40
2018-07-17T19:15:10.585Z,10.60
2018-07-17T19:19:54.148Z,8.40
2018-07-17T19:24:37.749Z,7.77
2018-07-17T19:29:21.689Z,6.23
2018-07-17T19:34:10.857Z,6.97
2018-07-17T19:38:54.443Z,6.40
2018-07-17T19:43:39.110Z,7.20
2018-07-17T19:48:22.638Z,5.70
2018-07-17T19:53:06.363Z,8.20
2018-07-17T19:57:49.961Z,5.83
2018-07-17T20:02:36.633Z,6.60
2018-07-17T20:07:20.181Z,8.83
2018-07-17T20:12:07.444Z,6.77
2018-07-17T20:16:50.800Z,6.20
2018-07-17T20:21:40.490Z,5.93
2018-07-17T20:26:27.536Z,7.07
2018-07-17T20:31:11.307Z,5.63
2018-07-17T20:35:54.981Z,5.83
2018-07-17T20:40:38.873Z,6.67
2018-07-17T20:45:22.367Z,7.67
2018-07-17T20:50:06.126Z,6.53
2018-07-17T20:54:49.677Z,6.03
2018-07-17T20:59:33.369Z,7.50
2018-07-17T21:04:29.056Z,7.47
2018-07-17T21:09:12.512Z,6.67
2018-07-17T21:13:56.041Z,6.33
2018-07-17T21:18:39.706Z,6.53
2018-07-17T21:23:23.435Z,9.00
2018-07-17T21:28:07.235Z,8.90
2018-07-17T21:32:50.952Z,6.93
2018-07-17T21:37:34.495Z,6.53
2018-07-17T21:42:18.244Z,7.40
2018-07-17T21:47:01.581Z,7.00
2018-07-17T21:51:45.243Z,6.60
2018-07-17T21:56:28.875Z,6.90
2018-07-17T22:01:12.499Z,6.60
2018-07-17T22:05:55.976Z,6.80
2018-07-17T22:10:42.682Z,7.83
2018-07-17T22:15:26.343Z,6.13
2018-07-17T22:20:09.967Z,6.07
2018-07-17T22:24:53.510Z,6.23
2018-07-17T22:29:38.051Z,7.07
2018-07-17T22:34:21.563Z,7.20
2018-07-17T22:39:07.838Z,5.60
2018-07-17T22:43:51.513Z,6.50
2018-07-17T22:48:34.915Z,6.17
2018-07-17T22:53:18.570Z,5.90
2018-07-17T22:58:02.070Z,5.80
2018-07-17T23:02:45.652Z,6.87
2018-07-17T23:07:29.145Z,6.07
2018-07-17T23:12:12.730Z,6.17
2018-07-17T23:16:56.173Z,6.43
2018-07-17T23:21:40.779Z,7.63
2018-07-17T23:26:24.432Z,5.27
2018-07-17T23:31:11.681Z,5.20
2018-07-17T23:35:55.053Z,5.70
2018-07-17T23:40:38.971Z,5.73
2018-07-17T23:45:23.132Z,5.43
2018-07-17T23:50:06.868Z,8.97
2018-07-17T23:54:50.550Z,5.90
2018-07-17T23:59:35.170Z,5.37
